createdAt,value
2023-03-30T00:02:23.554Z,86.53
2023-03-30T00:07:27.825Z,83.50
2023-03-30T00:12:30.976Z,83.23
2023-03-30T00:17:34.430Z,84.22
2023-03-30T00:22:39.143Z,84.53
2023-03-30T00:27:43.462Z,85.34
2023-03-30T00:32:47.933Z,85.08
2023-03-30T00:37:52.674Z,85.03
2023-03-30T00:43:00.037Z,84.72
2023-03-30T00:48:07.932Z,85.61
2023-03-30T00:53:16.263Z,86.50
2023-03-30T00:58:21.232Z,86.36
2023-03-30T01:03:28.633Z,88.46
2023-03-30T01:08:33.643Z,88.05
2023-03-30T01:13:39.325Z,88.96
2023-03-30T01:18:55.202Z,89.65
2023-03-30T01:24:36.233Z,89.54
2023-03-30T01:29:50.951Z,89.66
2023-03-30T01:35:32.522Z,90.04
2023-03-30T01:40:43.171Z,90.19
2023-03-30T01:45:49.809Z,90.78
2023-03-30T01:50:56.431Z,90.59
2023-03-30T01:56:05.227Z,91.68
2023-03-30T02:01:10.328Z,92.48
2023-03-30T02:06:20.539Z,91.28
2023-03-30T02:11:28.137Z,93.01
2023-03-30T02:16:37.468Z,93.17
2023-03-30T02:21:40.771Z,91.40
2023-03-30T02:26:46.230Z,91.69
2023-03-30T02:31:52.006Z,90.69
2023-03-30T02:37:09.972Z,90.55
2023-03-30T02:42:39.493Z,91.48
2023-03-30T02:47:54.289Z,91.55
2023-03-30T02:53:00.466Z,92.26
2023-03-30T02:58:15.390Z,91.33
2023-03-30T03:03:39.513Z,91.89
2023-03-30T03:08:47.823Z,91.51
2023-03-30T03:13:59.357Z,91.52
2023-03-30T03:19:04.271Z,92.53
2023-03-30T03:24:08.130Z,93.08
2023-03-30T03:29:51.068Z,93.02
2023-03-30T03:34:54.421Z,92.68
2023-03-30T03:39:57.978Z,92.46
2023-03-30T03:45:03.348Z,92.01
2023-03-30T03:50:09.775Z,92.04
2023-03-30T03:55:13.252Z,92.80
2023-03-30T04:00:21.615Z,92.69
2023-03-30T04:05:28.316Z,92.89
2023-03-30T04:10:32.278Z,92.99
2023-03-30T04:15:50.433Z,92.80
2023-03-30T04:21:13.371Z,93.74
2023-03-30T04:26:25.375Z,94.72
2023-03-30T04:31:39.458Z,94.68
2023-03-30T04:36:44.286Z,94.62
2023-03-30T04:42:14.312Z,93.57
2023-03-30T04:47:57.185Z,95.16
2023-03-30T04:53:00.119Z,95.45
2023-03-30T04:58:29.097Z,95.98
2023-03-30T05:03:50.978Z,96.48
2023-03-30T05:09:23.326Z,96.62
2023-03-30T05:14:54.077Z,95.76
2023-03-30T05:20:18.898Z,96.60
2023-03-30T05:25:57.027Z,96.68
2023-03-30T05:31:26.594Z,96.49
2023-03-30T05:36:51.090Z,96.43
2023-03-30T05:42:13.393Z,96.72
2023-03-30T05:47:28.893Z,97.30
2023-03-30T05:52:49.265Z,95.98
2023-03-30T05:58:00.718Z,93.84
2023-03-30T06:03:26.755Z,90.33
2023-03-30T06:08:31.189Z,92.31
2023-03-30T06:13:38.270Z,92.17
2023-03-30T06:18:41.776Z,88.61
2023-03-30T06:23:50.567Z,84.30
2023-03-30T06:28:57.513Z,81.08
2023-03-30T06:34:01.050Z,77.44
2023-03-30T06:39:06.734Z,75.83
2023-03-30T06:44:14.827Z,74.40
2023-03-30T06:49:21.950Z,74.03
2023-03-30T06:54:53.840Z,74.04
2023-03-30T06:59:57.742Z,74.07
2023-03-30T07:05:16.662Z,73.69
2023-03-30T07:10:59.220Z,74.11
2023-03-30T07:16:07.066Z,73.78
2023-03-30T07:21:10.832Z,71.27
2023-03-30T07:26:17.478Z,70.20
2023-03-30T07:31:29.502Z,68.54
2023-03-30T07:36:33.238Z,70.62
2023-03-30T07:41:37.728Z,70.57
2023-03-30T07:46:41.172Z,72.21
2023-03-30T07:51:49.130Z,71.92
2023-03-30T07:57:03.776Z,73.48
2023-03-30T08:02:07.826Z,74.72
2023-03-30T08:07:18.921Z,74.77
2023-03-30T08:12:25.664Z,74.44
2023-03-30T08:17:28.695Z,72.05
2023-03-30T08:22:31.768Z,71.67
2023-03-30T08:27:36.223Z,71.36
2023-03-30T08:32:39.160Z,70.10
2023-03-30T08:37:42.375Z,69.62
2023-03-30T08:43:05.000Z,69.53
2023-03-30T08:48:17.671Z,70.05
2023-03-30T08:53:20.821Z,71.01
2023-03-30T08:58:34.895Z,70.87
2023-03-30T09:03:42.370Z,70.07
2023-03-30T09:08:46.054Z,69.23
2023-03-30T09:13:52.533Z,69.43
2023-03-30T09:18:57.727Z,70.29
2023-03-30T09:24:07.349Z,70.90
2023-03-30T09:29:19.301Z,70.91
2023-03-30T09:34:27.481Z,72.81
2023-03-30T09:39:33.536Z,75.63
2023-03-30T09:44:45.434Z,78.58
2023-03-30T09:49:48.340Z,80.45
2023-03-30T09:54:51.234Z,81.15
2023-03-30T09:59:56.558Z,82.84
2023-03-30T10:05:02.773Z,82.68
2023-03-30T10:10:17.146Z,83.91
2023-03-30T10:15:24.555Z,86.56
2023-03-30T10:20:29.754Z,87.58
2023-03-30T10:25:34.914Z,89.64
2023-03-30T10:30:39.224Z,90.50
2023-03-30T10:35:42.151Z,88.50
2023-03-30T10:40:47.134Z,88.92
2023-03-30T10:45:54.380Z,89.64
2023-03-30T10:51:06.221Z,89.47
2023-03-30T10:56:24.065Z,87.43
2023-03-30T11:01:37.553Z,86.49
2023-03-30T11:06:42.828Z,85.19
2023-03-30T11:11:50.946Z,84.83
2023-03-30T11:17:01.040Z,85.04
2023-03-30T11:22:13.588Z,84.40
2023-03-30T11:27:21.789Z,83.62
2023-03-30T11:32:34.267Z,82.65
2023-03-30T11:37:42.539Z,82.79
2023-03-30T11:42:46.087Z,81.95
2023-03-30T11:48:05.970Z,79.60
2023-03-30T11:53:24.295Z,78.86
2023-03-30T11:58:36.307Z,76.76
2023-03-30T12:03:43.422Z,74.98
2023-03-30T12:09:02.325Z,73.65
2023-03-30T12:14:12.706Z,74.44
2023-03-30T12:19:24.813Z,74.33
2023-03-30T12:24:34.645Z,73.39
2023-03-30T12:30:02.391Z,71.50
2023-03-30T12:35:39.517Z,70.38
2023-03-30T12:40:47.367Z,70.48
2023-03-30T12:46:02.184Z,69.15
2023-03-30T12:51:15.692Z,70.29
2023-03-30T12:56:31.426Z,68.39
2023-03-30T13:01:56.826Z,67.41
2023-03-30T13:07:03.266Z,67.94
2023-03-30T13:12:36.121Z,66.75
2023-03-30T13:18:00.335Z,67.31
2023-03-30T13:23:26.005Z,64.95
2023-03-30T13:28:48.802Z,66.29
2023-03-30T13:34:00.646Z,66.32
2023-03-30T13:39:14.752Z,66.80
2023-03-30T13:44:36.875Z,67.78
2023-03-30T13:49:51.948Z,68.10
2023-03-30T13:54:55.085Z,68.40
2023-03-30T14:00:05.515Z,66.93
2023-03-30T14:05:28.958Z,67.23
2023-03-30T14:10:32.027Z,65.13
2023-03-30T14:15:39.188Z,63.33
2023-03-30T14:20:48.617Z,64.37
2023-03-30T14:25:54.834Z,63.20
2023-03-30T14:31:03.237Z,63.23
2023-03-30T14:36:08.910Z,61.84
2023-03-30T14:41:17.537Z,63.52
2023-03-30T14:46:24.616Z,64.00
2023-03-30T14:51:35.389Z,63.74
2023-03-30T14:56:38.459Z,63.24
2023-03-30T15:01:44.222Z,63.77
2023-03-30T15:06:48.593Z,63.52
2023-03-30T15:11:56.998Z,65.42
2023-03-30T15:17:05.107Z,69.56
2023-03-30T15:22:17.087Z,68.34
2023-03-30T15:27:20.308Z,67.33
2023-03-30T15:32:30.381Z,68.83
2023-03-30T15:37:34.522Z,69.65
2023-03-30T15:42:37.528Z,71.19
2023-03-30T15:47:42.849Z,72.37
2023-03-30T15:52:46.765Z,70.74
2023-03-30T15:57:52.581Z,81.44
2023-03-30T16:02:58.610Z,89.04
2023-03-30T16:08:01.638Z,88.98
2023-03-30T16:13:06.962Z,89.17
2023-03-30T16:18:12.666Z,88.94
2023-03-30T16:23:15.633Z,88.13
2023-03-30T16:28:18.973Z,88.46
2023-03-30T16:33:24.415Z,91.53
2023-03-30T16:38:27.374Z,92.26
2023-03-30T16:43:30.289Z,92.27
2023-03-30T16:48:34.578Z,90.84
2023-03-30T16:53:37.446Z,88.57
2023-03-30T16:58:40.387Z,88.42
2023-03-30T17:03:45.286Z,87.25
2023-03-30T17:08:48.214Z,86.40
2023-03-30T17:13:51.331Z,86.15
2023-03-30T17:18:55.704Z,85.62
2023-03-30T17:23:58.881Z,84.74
2023-03-30T17:29:01.900Z,83.80
2023-03-30T17:34:06.762Z,84.23
2023-03-30T17:39:13.238Z,84.36
2023-03-30T17:44:16.345Z,83.98
2023-03-30T17:49:20.765Z,84.68
2023-03-30T17:54:24.029Z,85.06
2023-03-30T17:59:27.035Z,85.05
2023-03-30T18:04:31.326Z,86.12
2023-03-30T18:09:34.403Z,85.09
2023-03-30T18:14:37.299Z,85.05
2023-03-30T18:19:41.553Z,85.64
2023-03-30T18:24:44.460Z,85.32
2023-03-30T18:29:47.389Z,86.07
2023-03-30T18:34:51.721Z,87.21
2023-03-30T18:39:54.621Z,87.17
2023-03-30T18:44:57.546Z,87.50
2023-03-30T18:50:01.861Z,87.28
2023-03-30T18:55:05.537Z,87.11
2023-03-30T19:00:19.725Z,87.06
2023-03-30T19:05:26.552Z,86.58
2023-03-30T19:10:32.428Z,87.36
2023-03-30T19:15:36.818Z,87.35
2023-03-30T19:20:42.026Z,87.54
2023-03-30T19:25:46.262Z,86.85
2023-03-30T19:30:49.374Z,86.92
2023-03-30T19:35:53.725Z,87.45
2023-03-30T19:41:00.690Z,87.31
2023-03-30T19:46:04.865Z,86.45
2023-03-30T19:51:09.375Z,87.04
2023-03-30T19:56:12.788Z,86.65
2023-03-30T20:01:15.698Z,86.62
2023-03-30T20:06:19.986Z,86.32
2023-03-30T20:11:23.337Z,87.02
2023-03-30T20:16:26.393Z,86.79
2023-03-30T20:21:31.200Z,87.31
2023-03-30T20:26:34.179Z,87.25
2023-03-30T20:31:37.156Z,86.60
2023-03-30T20:36:41.502Z,86.12
2023-03-30T20:41:44.606Z,86.18
2023-03-30T20:46:47.542Z,86.54
2023-03-30T20:51:53.160Z,86.70
2023-03-30T20:56:56.443Z,87.23
2023-03-30T21:02:00.023Z,87.16
2023-03-30T21:07:04.394Z,88.06
2023-03-30T21:12:09.637Z,88.38
2023-03-30T21:17:13.103Z,88.67
2023-03-30T21:22:18.021Z,89.43
2023-03-30T21:27:20.958Z,88.86
2023-03-30T21:32:23.874Z,88.59
2023-03-30T21:37:28.136Z,88.61
2023-03-30T21:42:31.162Z,88.35
2023-03-30T21:47:34.119Z,88.86
2023-03-30T21:52:38.386Z,88.61
2023-03-30T21:57:41.310Z,88.33
2023-03-30T22:02:44.318Z,87.76
2023-03-30T22:07:48.637Z,87.00
2023-03-30T22:12:51.550Z,87.42
2023-03-30T22:17:54.537Z,86.66
2023-03-30T22:22:59.168Z,87.34
2023-03-30T22:28:02.689Z,86.98
2023-03-30T22:33:05.693Z,87.32
2023-03-30T22:38:11.338Z,87.87
2023-03-30T22:43:14.408Z,88.20
2023-03-30T22:48:17.289Z,88.15
2023-03-30T22:53:21.710Z,87.82
2023-03-30T22:58:24.965Z,88.31
2023-03-30T23:03:27.879Z,88.42
2023-03-30T23:08:32.800Z,87.57
2023-03-30T23:13:37.108Z,87.88
2023-03-30T23:18:40.970Z,87.88
2023-03-30T23:23:45.242Z,87.48
2023-03-30T23:28:48.603Z,88.15
2023-03-30T23:33:52.658Z,87.89
2023-03-30T23:38:56.982Z,88.11
2023-03-30T23:43:59.863Z,87.85
2023-03-30T23:49:03.445Z,87.64
2023-03-30T23:54:07.964Z,87.55
2023-03-30T23:59:11.613Z,87.48
